createdAt,value
2023-07-07T00:00:30.121Z,99136.83
2023-07-07T00:03:42.384Z,99140.60
2023-07-07T00:06:34.381Z,99142.00
2023-07-07T00:09:27.085Z,99143.52
2023-07-07T00:12:20.616Z,99140.45
2023-07-07T00:15:13.594Z,99143.17
2023-07-07T00:17:48.713Z,99144.66
2023-07-07T00:20:40.950Z,99147.52
2023-07-07T00:23:33.704Z,99152.32
2023-07-07T00:26:26.988Z,99155.73
2023-07-07T00:29:08.929Z,99156.10
2023-07-07T00:32:01.299Z,99157.90
2023-07-07T00:34:53.413Z,99161.83
2023-07-07T00:37:47.526Z,99161.77
2023-07-07T00:40:39.599Z,99158.91
2023-07-07T00:43:31.871Z,99162.69
2023-07-07T00:46:15.814Z,99167.30
2023-07-07T00:49:12.438Z,99162.41
2023-07-07T00:52:05.182Z,99159.18
2023-07-07T00:54:38.419Z,99167.53
2023-07-07T00:57:30.818Z,99168.09
2023-07-07T01:00:23.436Z,99168.85
2023-07-07T01:03:23.334Z,99172.04
2023-07-07T01:06:20.381Z,99170.88
2023-07-07T01:09:12.604Z,99175.33
2023-07-07T01:12:05.185Z,99171.19
2023-07-07T01:14:57.275Z,99172.83
2023-07-07T01:18:00.951Z,99167.80
2023-07-07T01:20:44.665Z,99167.17
2023-07-07T01:24:11.556Z,99170.77
2023-07-07T01:27:20.308Z,99170.85
2023-07-07T01:30:32.717Z,99173.55
2023-07-07T01:33:28.876Z,99174.27
2023-07-07T01:36:20.926Z,99172.20
2023-07-07T01:39:14.210Z,99176.84
2023-07-07T01:42:12.335Z,99174.23
2023-07-07T01:45:09.024Z,99174.66
2023-07-07T01:48:11.398Z,99172.11
2023-07-07T01:51:05.925Z,99174.31
2023-07-07T01:54:02.009Z,99172.16
2023-07-07T01:56:57.122Z,99165.95
2023-07-07T01:59:49.862Z,99169.31
2023-07-07T02:02:41.916Z,99167.41
2023-07-07T02:05:33.965Z,99167.83
2023-07-07T02:08:26.025Z,99168.42
2023-07-07T02:11:18.136Z,99164.80
2023-07-07T02:14:10.249Z,99169.59
2023-07-07T02:17:02.471Z,99170.02
2023-07-07T02:19:54.515Z,99171.11
2023-07-07T02:22:46.554Z,99172.04
2023-07-07T02:25:38.642Z,99177.52
2023-07-07T02:28:30.686Z,99175.95
2023-07-07T02:31:25.524Z,99176.55
2023-07-07T02:34:18.083Z,99176.40
2023-07-07T02:37:14.254Z,99177.69
2023-07-07T02:40:10.358Z,99174.73
2023-07-07T02:43:02.463Z,99183.71
2023-07-07T02:45:36.801Z,99189.11
2023-07-07T02:48:28.919Z,99193.17
2023-07-07T02:51:11.317Z,99188.33
2023-07-07T02:53:43.072Z,99190.64
2023-07-07T02:56:35.186Z,99194.85
2023-07-07T02:59:27.370Z,99202.05
2023-07-07T03:02:19.717Z,99207.14
2023-07-07T03:05:13.491Z,99203.80
2023-07-07T03:08:06.197Z,99204.66
2023-07-07T03:10:58.511Z,99210.59
2023-07-07T03:13:52.205Z,99208.64
2023-07-07T03:16:47.714Z,99207.02
2023-07-07T03:19:42.801Z,99210.86
2023-07-07T03:22:34.953Z,99210.15
2023-07-07T03:25:28.345Z,99216.11
2023-07-07T03:28:20.484Z,99220.96
2023-07-07T03:31:14.799Z,99222.66
2023-07-07T03:34:08.667Z,99223.85
2023-07-07T03:37:00.759Z,99228.19
2023-07-07T03:39:53.258Z,99231.81
2023-07-07T03:42:45.340Z,99234.32
2023-07-07T03:45:38.292Z,99233.39
2023-07-07T03:48:31.007Z,99236.50
2023-07-07T03:51:25.235Z,99235.34
2023-07-07T03:53:57.151Z,99235.98
2023-07-07T03:56:49.271Z,99236.41
2023-07-07T03:59:41.637Z,99241.38
2023-07-07T04:02:34.746Z,99243.55
2023-07-07T04:05:27.004Z,99243.20
2023-07-07T04:08:01.843Z,99243.55
2023-07-07T04:10:33.860Z,99248.85
2023-07-07T04:13:26.117Z,99252.55
2023-07-07T04:16:22.246Z,99252.02
2023-07-07T04:19:14.538Z,99251.86
2023-07-07T04:21:55.395Z,99254.30
2023-07-07T04:24:32.901Z,99259.38
2023-07-07T04:27:24.961Z,99264.64
2023-07-07T04:29:59.799Z,99266.36
2023-07-07T04:32:38.707Z,99269.84
2023-07-07T04:35:30.895Z,99268.44
2023-07-07T04:38:31.672Z,99268.55
2023-07-07T04:41:26.311Z,99268.98
2023-07-07T04:44:18.430Z,99271.19
2023-07-07T04:47:10.794Z,99270.23
2023-07-07T04:50:02.896Z,99271.19
2023-07-07T04:52:54.991Z,99275.13
2023-07-07T04:55:49.343Z,99266.23
2023-07-07T04:58:42.526Z,99270.50
2023-07-07T05:01:34.986Z,99276.02
2023-07-07T05:04:28.370Z,99275.27
2023-07-07T05:07:20.533Z,99274.92
2023-07-07T05:10:13.186Z,99279.14
2023-07-07T05:13:05.318Z,99281.11
2023-07-07T05:16:04.411Z,99276.50
2023-07-07T05:18:56.683Z,99276.28
2023-07-07T05:21:31.235Z,99278.07
2023-07-07T05:24:23.259Z,99275.89
2023-07-07T05:27:16.039Z,99270.70
2023-07-07T05:30:10.388Z,99275.05
2023-07-07T05:33:02.402Z,99272.35
2023-07-07T05:35:37.282Z,99272.31
2023-07-07T05:38:31.073Z,99265.65
2023-07-07T05:41:23.253Z,99263.86
2023-07-07T05:43:56.801Z,99270.33
2023-07-07T05:46:49.035Z,99271.60
2023-07-07T05:49:41.104Z,99272.63
2023-07-07T05:52:15.478Z,99268.91
2023-07-07T05:54:57.864Z,99273.84
2023-07-07T05:57:49.968Z,99278.63
2023-07-07T06:00:42.456Z,99275.77
2023-07-07T06:03:34.763Z,99277.46
2023-07-07T06:06:27.191Z,99283.85
2023-07-07T06:09:19.655Z,99280.31
2023-07-07T06:11:54.814Z,99284.83
2023-07-07T06:14:46.977Z,99285.58
2023-07-07T06:17:39.277Z,99288.21
2023-07-07T06:20:31.753Z,99290.17
2023-07-07T06:23:24.261Z,99285.86
2023-07-07T06:26:12.220Z,99293.61
2023-07-07T06:28:54.415Z,99293.26
2023-07-07T06:31:46.554Z,99291.43
2023-07-07T06:34:22.187Z,99293.01
2023-07-07T06:36:57.052Z,99289.86
2023-07-07T06:39:49.287Z,99293.67
2023-07-07T06:42:41.400Z,99292.10
2023-07-07T06:45:35.282Z,99293.17
2023-07-07T06:48:27.379Z,99295.13
2023-07-07T06:51:19.976Z,99293.41
2023-07-07T06:54:12.217Z,99297.98
2023-07-07T06:57:04.746Z,99295.48
2023-07-07T06:59:57.205Z,99298.59
2023-07-07T07:02:49.559Z,99297.65
2023-07-07T07:05:42.031Z,99294.84
2023-07-07T07:08:34.181Z,99292.13
2023-07-07T07:11:07.347Z,99298.32
2023-07-07T07:13:59.656Z,99294.54
2023-07-07T07:16:51.740Z,99292.83
2023-07-07T07:19:26.567Z,99288.83
2023-07-07T07:22:19.574Z,99283.08
2023-07-07T07:25:12.545Z,99285.30
2023-07-07T07:28:04.880Z,99284.08
2023-07-07T07:30:57.062Z,99286.39
2023-07-07T07:33:54.406Z,99283.12
2023-07-07T07:36:46.508Z,99282.77
2023-07-07T07:39:38.919Z,99282.08
2023-07-07T07:42:31.543Z,99283.77
2023-07-07T07:45:25.358Z,99276.20
2023-07-07T07:48:17.699Z,99280.85
2023-07-07T07:51:24.174Z,99279.89
2023-07-07T07:54:23.133Z,99283.91
2023-07-07T07:57:06.938Z,99285.65
2023-07-07T07:59:59.048Z,99287.80
2023-07-07T08:02:42.851Z,99288.55
2023-07-07T08:05:35.265Z,99284.83
2023-07-07T08:08:23.596Z,99288.06
2023-07-07T08:11:19.297Z,99287.65
2023-07-07T08:14:14.169Z,99292.58
2023-07-07T08:16:46.825Z,99289.80
2023-07-07T08:19:41.124Z,99290.47
2023-07-07T08:22:33.264Z,99289.94
2023-07-07T08:25:25.953Z,99287.50
2023-07-07T08:28:18.023Z,99289.37
2023-07-07T08:31:10.168Z,99292.30
2023-07-07T08:33:57.701Z,99294.33
2023-07-07T08:36:55.204Z,99293.02
2023-07-07T08:39:47.964Z,99294.02
2023-07-07T08:42:41.937Z,99291.89
2023-07-07T08:45:35.178Z,99295.52
2023-07-07T08:48:34.385Z,99300.59
2023-07-07T08:51:16.862Z,99304.89
2023-07-07T08:54:18.800Z,99304.98
2023-07-07T08:57:14.742Z,99302.88
2023-07-07T09:00:19.216Z,99305.27
2023-07-07T09:03:30.772Z,99305.95
2023-07-07T09:06:25.933Z,99302.80
2023-07-07T09:09:27.308Z,99304.31
2023-07-07T09:12:33.204Z,99306.18
2023-07-07T09:15:28.209Z,99309.80
2023-07-07T09:18:25.389Z,99305.59
2023-07-07T09:21:09.954Z,99309.63
2023-07-07T09:24:09.452Z,99310.69
2023-07-07T09:27:07.035Z,99310.94
2023-07-07T09:30:12.864Z,99316.22
2023-07-07T09:33:05.163Z,99315.95
2023-07-07T09:36:10.497Z,99314.42
2023-07-07T09:39:13.967Z,99315.83
2023-07-07T09:42:18.405Z,99316.42
2023-07-07T09:45:30.300Z,99315.74
2023-07-07T09:48:27.356Z,99311.05
2023-07-07T09:51:18.231Z,99309.21
2023-07-07T09:54:14.290Z,99309.80
2023-07-07T09:57:14.509Z,99314.52
2023-07-07T10:00:11.247Z,99304.98
2023-07-07T10:03:08.812Z,99308.04
2023-07-07T10:06:03.370Z,99304.15
2023-07-07T10:08:38.430Z,99309.52
2023-07-07T10:12:05.749Z,99315.48
2023-07-07T10:14:47.892Z,99311.30
2023-07-07T10:17:32.327Z,99315.87
2023-07-07T10:20:24.647Z,99317.34
2023-07-07T10:22:56.566Z,99315.27
2023-07-07T10:25:48.965Z,99314.10
2023-07-07T10:28:41.616Z,99317.76
2023-07-07T10:31:13.743Z,99320.52
2023-07-07T10:34:25.831Z,99320.58
2023-07-07T10:37:23.070Z,99322.52
2023-07-07T10:40:22.788Z,99323.19
2023-07-07T10:43:19.682Z,99319.61
2023-07-07T10:45:56.806Z,99317.04
2023-07-07T10:48:49.209Z,99315.65
2023-07-07T10:51:49.892Z,99307.55
2023-07-07T10:54:49.545Z,99302.32
2023-07-07T10:57:50.548Z,99305.20
2023-07-07T11:01:08.067Z,99308.47
2023-07-07T11:04:29.703Z,99312.98
2023-07-07T11:07:22.954Z,99309.78
2023-07-07T11:10:35.995Z,99312.30
2023-07-07T11:13:45.458Z,99308.95
2023-07-07T11:16:29.427Z,99312.75
2023-07-07T11:19:34.093Z,99312.69
2023-07-07T11:22:42.930Z,99311.38
2023-07-07T11:25:43.260Z,99307.94
2023-07-07T11:28:44.236Z,99305.57
2023-07-07T11:31:59.445Z,99305.30
2023-07-07T11:35:18.030Z,99304.73
2023-07-07T11:38:26.829Z,99303.17
2023-07-07T11:41:29.108Z,99297.88
2023-07-07T11:44:36.219Z,99296.63
2023-07-07T11:47:50.969Z,99295.77
2023-07-07T11:51:00.256Z,99293.41
2023-07-07T11:54:07.551Z,99298.99
2023-07-07T11:57:12.733Z,99298.27
2023-07-07T12:00:23.875Z,99292.66
2023-07-07T12:03:36.942Z,99291.91
2023-07-07T12:06:37.417Z,99291.84
2023-07-07T12:09:39.323Z,99289.98
2023-07-07T12:12:38.336Z,99288.55
2023-07-07T12:15:26.608Z,99287.02
2023-07-07T12:18:22.967Z,99288.34
2023-07-07T12:21:18.416Z,99290.36
2023-07-07T12:24:22.130Z,99289.87
2023-07-07T12:27:09.922Z,99291.48
2023-07-07T12:30:03.318Z,99288.04
2023-07-07T12:32:56.287Z,99287.64
2023-07-07T12:35:54.031Z,99288.53
2023-07-07T12:38:52.419Z,99283.73
2023-07-07T12:41:44.465Z,99286.52
2023-07-07T12:44:38.259Z,99283.61
2023-07-07T12:47:33.406Z,99278.63
2023-07-07T12:50:32.126Z,99278.09
2023-07-07T12:53:34.448Z,99279.17
2023-07-07T12:56:28.271Z,99275.66
2023-07-07T12:59:40.480Z,99269.98
2023-07-07T13:02:32.609Z,99270.92
2023-07-07T13:05:24.434Z,99268.16
2023-07-07T13:08:35.027Z,99263.80
2023-07-07T13:11:37.271Z,99265.09
2023-07-07T13:14:35.650Z,99262.56
2023-07-07T13:17:28.604Z,99264.04
2023-07-07T13:20:24.087Z,99259.02
2023-07-07T13:23:22.607Z,99264.42
2023-07-07T13:26:27.160Z,99263.15
2023-07-07T13:29:19.355Z,99262.50
2023-07-07T13:32:27.613Z,99266.94
2023-07-07T13:35:19.848Z,99265.02
2023-07-07T13:38:15.733Z,99267.58
2023-07-07T13:41:13.985Z,99270.45
2023-07-07T13:44:06.377Z,99271.69
2023-07-07T13:47:15.916Z,99267.08
2023-07-07T13:49:53.339Z,99273.46
2023-07-07T13:52:49.725Z,99267.14
2023-07-07T13:55:46.636Z,99271.75
2023-07-07T13:58:44.550Z,99264.38
2023-07-07T14:01:40.481Z,99261.67
2023-07-07T14:04:37.070Z,99266.41
2023-07-07T14:07:29.200Z,99267.30
2023-07-07T14:10:33.137Z,99266.17
2023-07-07T14:13:31.972Z,99264.63
2023-07-07T14:16:30.370Z,99263.41
2023-07-07T14:19:28.975Z,99258.08
2023-07-07T14:22:21.396Z,99256.34
2023-07-07T14:25:18.861Z,99253.02
2023-07-07T14:28:17.452Z,99255.19
2023-07-07T14:31:12.549Z,99254.02
2023-07-07T14:34:05.826Z,99254.17
2023-07-07T14:37:00.920Z,99256.40
2023-07-07T14:39:55.807Z,99249.52
2023-07-07T14:42:54.071Z,99249.04
2023-07-07T14:45:46.340Z,99250.98
2023-07-07T14:48:50.865Z,99249.02
2023-07-07T14:51:47.858Z,99250.59
2023-07-07T14:54:40.244Z,99244.28
2023-07-07T14:57:25.452Z,99230.70
2023-07-07T15:00:41.415Z,99234.05
2023-07-07T15:03:38.529Z,99236.77
2023-07-07T15:06:36.148Z,99230.33
2023-07-07T15:09:29.519Z,99236.13
2023-07-07T15:12:21.633Z,99236.67
2023-07-07T15:15:15.494Z,99235.11
2023-07-07T15:18:07.709Z,99233.42
2023-07-07T15:20:59.734Z,99233.42
2023-07-07T15:23:52.097Z,99237.66
2023-07-07T15:26:45.066Z,99235.54
2023-07-07T15:29:37.607Z,99228.83
2023-07-07T15:32:29.918Z,99230.93
2023-07-07T15:35:22.230Z,99230.92
2023-07-07T15:38:48.505Z,99231.70
2023-07-07T15:41:40.565Z,99233.05
2023-07-07T15:44:15.472Z,99232.75
2023-07-07T15:47:18.437Z,99234.80
2023-07-07T15:50:00.619Z,99236.23
2023-07-07T15:52:52.741Z,99237.14
2023-07-07T15:55:45.270Z,99232.70
2023-07-07T15:58:37.278Z,99233.34
2023-07-07T16:01:20.732Z,99229.60
2023-07-07T16:04:13.019Z,99225.92
2023-07-07T16:07:05.638Z,99226.57
2023-07-07T16:09:57.635Z,99225.70
2023-07-07T16:12:49.808Z,99226.11
2023-07-07T16:15:41.940Z,99228.28
2023-07-07T16:18:33.979Z,99230.24
2023-07-07T16:21:27.835Z,99233.66
2023-07-07T16:24:19.922Z,99233.48
2023-07-07T16:27:16.607Z,99235.17
2023-07-07T16:30:18.040Z,99233.12
2023-07-07T16:33:10.414Z,99231.45
2023-07-07T16:36:02.505Z,99231.46
2023-07-07T16:38:55.275Z,99225.45
2023-07-07T16:41:47.721Z,99228.38
2023-07-07T16:44:41.863Z,99226.89
2023-07-07T16:47:34.075Z,99229.39
2023-07-07T16:50:27.828Z,99231.22
2023-07-07T16:53:19.863Z,99234.61
2023-07-07T16:56:25.955Z,99235.25
2023-07-07T16:59:19.197Z,99239.80
2023-07-07T17:02:12.734Z,99234.82
2023-07-07T17:05:04.822Z,99230.33
2023-07-07T17:07:56.820Z,99232.52
2023-07-07T17:10:48.909Z,99234.16
2023-07-07T17:13:41.115Z,99240.42
2023-07-07T17:16:35.396Z,99244.29
2023-07-07T17:19:18.604Z,99240.89
2023-07-07T17:22:10.792Z,99242.62
2023-07-07T17:25:02.945Z,99243.48
2023-07-07T17:27:56.436Z,99237.15
2023-07-07T17:30:48.517Z,99240.31
2023-07-07T17:33:40.656Z,99239.23
2023-07-07T17:36:25.041Z,99240.73
2023-07-07T17:39:20.006Z,99246.09
2023-07-07T17:42:10.539Z,99245.98
2023-07-07T17:45:02.740Z,99252.14
2023-07-07T17:47:54.831Z,99254.67
2023-07-07T17:50:49.771Z,99254.35
2023-07-07T17:53:41.842Z,99257.77
2023-07-07T17:56:35.536Z,99261.16
2023-07-07T17:59:27.643Z,99263.95
2023-07-07T18:02:19.766Z,99263.54
2023-07-07T18:05:12.129Z,99264.09
2023-07-07T18:08:04.370Z,99265.17
2023-07-07T18:10:56.695Z,99261.46
2023-07-07T18:13:32.008Z,99259.38
2023-07-07T18:16:26.219Z,99260.58
2023-07-07T18:19:56.112Z,99262.13
2023-07-07T18:22:31.638Z,99260.34
2023-07-07T18:25:23.766Z,99259.54
2023-07-07T18:28:04.500Z,99256.37
2023-07-07T18:30:59.958Z,99259.25
2023-07-07T18:33:52.434Z,99261.75
2023-07-07T18:36:48.211Z,99265.92
2023-07-07T18:39:41.584Z,99265.98
2023-07-07T18:42:27.054Z,99275.17
2023-07-07T18:45:07.858Z,99270.30
2023-07-07T18:48:01.703Z,99272.16
2023-07-07T18:50:53.973Z,99273.80
2023-07-07T18:53:37.590Z,99277.36
2023-07-07T18:56:35.065Z,99272.64
2023-07-07T18:59:27.188Z,99274.50
2023-07-07T19:02:19.330Z,99273.73
2023-07-07T19:05:12.093Z,99272.79
2023-07-07T19:08:04.123Z,99275.27
2023-07-07T19:10:56.177Z,99276.69
2023-07-07T19:13:48.474Z,99279.35
2023-07-07T19:16:41.128Z,99281.04
2023-07-07T19:19:33.294Z,99282.31
2023-07-07T19:22:25.403Z,99284.45
2023-07-07T19:25:17.555Z,99282.10
2023-07-07T19:28:00.815Z,99285.77
2023-07-07T19:30:35.620Z,99289.27
2023-07-07T19:33:27.911Z,99286.59
2023-07-07T19:36:21.971Z,99288.62
2023-07-07T19:39:18.400Z,99289.44
2023-07-07T19:42:13.962Z,99291.09
2023-07-07T19:45:06.858Z,99289.42
2023-07-07T19:47:58.939Z,99291.64
2023-07-07T19:50:34.178Z,99287.34
2023-07-07T19:53:26.257Z,99286.52
2023-07-07T19:56:18.614Z,99286.34
2023-07-07T19:59:14.459Z,99286.91
2023-07-07T20:02:15.100Z,99286.05
2023-07-07T20:05:08.006Z,99283.84
2023-07-07T20:08:00.228Z,99289.69
2023-07-07T20:10:54.307Z,99290.78
2023-07-07T20:13:46.941Z,99292.95
2023-07-07T20:16:43.714Z,99294.77
2023-07-07T20:19:35.870Z,99296.89
2023-07-07T20:22:27.923Z,99298.64
2023-07-07T20:25:20.324Z,99295.84
2023-07-07T20:28:18.019Z,99297.34
2023-07-07T20:31:13.427Z,99307.07
2023-07-07T20:34:05.858Z,99313.44
2023-07-07T20:36:58.040Z,99319.05
2023-07-07T20:39:50.387Z,99320.55
2023-07-07T20:42:42.601Z,99320.84
2023-07-07T20:45:34.642Z,99324.52
2023-07-07T20:48:26.712Z,99323.02
2023-07-07T20:51:20.592Z,99326.45
2023-07-07T20:54:12.622Z,99326.19
2023-07-07T20:57:17.383Z,99327.64
2023-07-07T21:00:20.984Z,99324.00
2023-07-07T21:03:13.535Z,99325.86
2023-07-07T21:06:06.283Z,99335.48
2023-07-07T21:08:58.413Z,99334.88
2023-07-07T21:11:50.723Z,99337.05
2023-07-07T21:14:33.037Z,99339.33
2023-07-07T21:17:25.204Z,99347.33
2023-07-07T21:20:30.643Z,99345.66
2023-07-07T21:23:17.077Z,99347.53
2023-07-07T21:26:17.619Z,99348.52
2023-07-07T21:29:13.980Z,99344.58
2023-07-07T21:32:11.216Z,99345.35
2023-07-07T21:35:03.620Z,99347.14
2023-07-07T21:37:55.735Z,99346.52
2023-07-07T21:40:47.910Z,99352.20
2023-07-07T21:43:40.061Z,99358.80
2023-07-07T21:46:32.166Z,99361.44
2023-07-07T21:49:24.231Z,99364.65
2023-07-07T21:52:18.256Z,99362.40
2023-07-07T21:55:11.400Z,99363.84
2023-07-07T21:58:03.415Z,99364.11
2023-07-07T22:00:55.540Z,99363.23
2023-07-07T22:03:52.817Z,99360.93
2023-07-07T22:06:45.161Z,99361.16
2023-07-07T22:09:37.187Z,99357.54
2023-07-07T22:12:13.119Z,99361.93
2023-07-07T22:14:53.611Z,99361.70
2023-07-07T22:17:45.725Z,99360.41
2023-07-07T22:20:43.101Z,99363.77
2023-07-07T22:23:35.556Z,99364.48
2023-07-07T22:26:29.121Z,99366.23
2023-07-07T22:29:21.155Z,99366.15
2023-07-07T22:32:15.545Z,99360.77
2023-07-07T22:35:08.751Z,99357.56
2023-07-07T22:38:00.796Z,99351.54
2023-07-07T22:40:55.995Z,99352.75
2023-07-07T22:43:46.492Z,99355.18
2023-07-07T22:46:43.981Z,99358.88
2023-07-07T22:49:36.132Z,99359.45
2023-07-07T22:52:28.304Z,99357.46
2023-07-07T22:55:22.249Z,99355.73
2023-07-07T22:58:19.113Z,99352.36
2023-07-07T23:01:14.373Z,99350.36
2023-07-07T23:04:10.205Z,99349.65
2023-07-07T23:07:02.317Z,99352.34
2023-07-07T23:09:55.907Z,99353.19
2023-07-07T23:12:48.809Z,99355.02
2023-07-07T23:15:40.842Z,99352.46
2023-07-07T23:18:32.891Z,99358.42
2023-07-07T23:21:24.917Z,99360.64
2023-07-07T23:24:18.508Z,99363.23
2023-07-07T23:27:12.314Z,99360.16
2023-07-07T23:30:13.820Z,99358.33
2023-07-07T23:33:05.125Z,99359.87
2023-07-07T23:35:58.454Z,99353.47
2023-07-07T23:38:50.512Z,99353.95
2023-07-07T23:41:42.551Z,99357.75
2023-07-07T23:44:34.607Z,99355.39
2023-07-07T23:47:26.804Z,99355.33
2023-07-07T23:50:24.962Z,99354.73
2023-07-07T23:53:17.463Z,99356.56
2023-07-07T23:56:14.444Z,99351.05
2023-07-07T23:59:11.878Z,99351.67
